createdAt,value
2023-05-04T00:01:01.787Z,13.96
2023-05-04T00:03:29.417Z,13.95
2023-05-04T00:05:56.788Z,14.02
2023-05-04T00:08:23.971Z,14.05
2023-05-04T00:10:51.499Z,14.03
2023-05-04T00:13:18.611Z,14.03
2023-05-04T00:15:45.955Z,14.04
2023-05-04T00:18:13.480Z,14.08
2023-05-04T00:20:40.982Z,13.90
2023-05-04T00:23:08.163Z,13.82
2023-05-04T00:25:35.652Z,13.84
2023-05-04T00:28:02.835Z,13.91
2023-05-04T00:30:30.079Z,13.97
2023-05-04T00:32:57.599Z,13.99
2023-05-04T00:35:25.226Z,13.99
2023-05-04T00:37:52.389Z,14.00
2023-05-04T00:40:20.026Z,14.04
2023-05-04T00:42:47.204Z,14.01
2023-05-04T00:45:15.576Z,14.04
2023-05-04T00:47:43.628Z,14.09
2023-05-04T00:50:11.694Z,14.07
2023-05-04T00:52:40.124Z,14.06
2023-05-04T00:55:08.247Z,13.97
2023-05-04T00:57:35.462Z,13.94
2023-05-04T01:00:03.521Z,13.98
2023-05-04T01:02:31.962Z,14.00
2023-05-04T01:04:59.178Z,13.91
2023-05-04T01:07:36.243Z,13.85
2023-05-04T01:10:06.611Z,13.81
2023-05-04T01:13:03.351Z,13.65
2023-05-04T01:15:32.477Z,13.50
2023-05-04T01:17:59.787Z,13.36
2023-05-04T01:20:27.111Z,13.30
2023-05-04T01:22:56.367Z,13.25
2023-05-04T01:25:28.992Z,13.16
2023-05-04T01:27:59.959Z,13.09
2023-05-04T01:30:32.627Z,13.00
2023-05-04T01:33:01.286Z,12.97
2023-05-04T01:35:29.184Z,12.89
2023-05-04T01:37:57.082Z,12.80
2023-05-04T01:40:24.485Z,12.79
2023-05-04T01:42:51.572Z,12.74
2023-05-04T01:45:18.828Z,12.69
2023-05-04T01:47:46.382Z,12.69
2023-05-04T01:50:13.553Z,12.68
2023-05-04T01:52:40.690Z,12.52
2023-05-04T01:55:08.458Z,12.46
2023-05-04T01:57:35.654Z,12.45
2023-05-04T02:00:04.206Z,12.45
2023-05-04T02:02:43.309Z,12.44
2023-05-04T02:05:12.009Z,12.33
2023-05-04T02:07:39.174Z,12.28
2023-05-04T02:10:08.769Z,12.30
2023-05-04T02:12:36.449Z,12.27
2023-05-04T02:15:04.135Z,12.22
2023-05-04T02:17:31.460Z,12.13
2023-05-04T02:19:58.948Z,12.07
2023-05-04T02:22:26.120Z,11.92
2023-05-04T02:24:53.356Z,12.00
2023-05-04T02:27:20.951Z,12.01
2023-05-04T02:29:49.085Z,11.97
2023-05-04T02:32:16.306Z,11.97
2023-05-04T02:34:43.778Z,12.05
2023-05-04T02:37:11.264Z,12.12
2023-05-04T02:39:38.460Z,12.12
2023-05-04T02:42:06.085Z,12.17
2023-05-04T02:44:33.564Z,12.20
2023-05-04T02:47:00.762Z,12.24
2023-05-04T02:49:29.927Z,12.25
2023-05-04T02:51:57.510Z,12.22
2023-05-04T02:54:24.733Z,12.21
2023-05-04T02:56:51.904Z,12.28
2023-05-04T02:59:19.318Z,12.28
2023-05-04T03:01:46.519Z,12.27
2023-05-04T03:04:13.765Z,12.32
2023-05-04T03:06:41.273Z,12.37
2023-05-04T03:09:09.756Z,12.40
2023-05-04T03:11:36.921Z,12.45
2023-05-04T03:14:04.400Z,12.41
2023-05-04T03:16:31.606Z,12.43
2023-05-04T03:18:59.010Z,12.29
2023-05-04T03:21:26.689Z,12.21
2023-05-04T03:23:53.883Z,12.14
2023-05-04T03:26:21.536Z,12.06
2023-05-04T03:28:50.359Z,12.03
2023-05-04T03:31:17.624Z,12.05
2023-05-04T03:33:47.790Z,12.12
2023-05-04T03:36:15.415Z,12.13
2023-05-04T03:38:42.996Z,12.07
2023-05-04T03:41:10.780Z,12.09
2023-05-04T03:43:39.408Z,12.01
2023-05-04T03:46:06.703Z,11.92
2023-05-04T03:48:33.911Z,11.80
2023-05-04T03:51:01.439Z,11.89
2023-05-04T03:53:28.672Z,11.85
2023-05-04T03:55:56.505Z,11.81
2023-05-04T03:58:24.668Z,11.80
2023-05-04T04:00:52.692Z,11.84
2023-05-04T04:03:20.292Z,11.95
2023-05-04T04:05:47.848Z,12.10
2023-05-04T04:08:15.153Z,12.29
2023-05-04T04:10:42.647Z,12.51
2023-05-04T04:13:09.899Z,12.66
2023-05-04T04:15:37.133Z,12.84
2023-05-04T04:18:04.638Z,13.10
2023-05-04T04:20:32.986Z,13.20
2023-05-04T04:23:00.163Z,13.26
2023-05-04T04:25:28.139Z,13.33
2023-05-04T04:27:55.508Z,13.42
2023-05-04T04:30:22.970Z,13.53
2023-05-04T04:32:50.510Z,13.67
2023-05-04T04:35:18.250Z,13.71
2023-05-04T04:37:45.417Z,13.72
2023-05-04T04:40:13.143Z,13.82
2023-05-04T04:42:40.379Z,14.01
2023-05-04T04:45:08.156Z,14.02
2023-05-04T04:47:36.117Z,13.97
2023-05-04T04:50:04.826Z,13.96
2023-05-04T04:52:33.245Z,13.95
2023-05-04T04:55:01.358Z,14.08
2023-05-04T04:57:30.531Z,14.14
2023-05-04T04:59:58.861Z,14.12
2023-05-04T05:02:28.316Z,14.12
2023-05-04T05:04:55.708Z,14.20
2023-05-04T05:07:23.032Z,14.46
2023-05-04T05:09:50.595Z,14.56
2023-05-04T05:12:17.786Z,14.58
2023-05-04T05:14:47.197Z,14.55
2023-05-04T05:17:14.693Z,14.38
2023-05-04T05:19:42.365Z,14.39
2023-05-04T05:22:09.947Z,14.48
2023-05-04T05:24:37.534Z,14.60
2023-05-04T05:27:04.705Z,14.58
2023-05-04T05:29:31.916Z,14.56
2023-05-04T05:31:59.438Z,14.67
2023-05-04T05:34:27.218Z,14.98
2023-05-04T05:36:54.432Z,15.04
2023-05-04T05:39:21.985Z,14.96
2023-05-04T05:41:49.312Z,15.10
2023-05-04T05:44:16.416Z,15.35
2023-05-04T05:46:43.995Z,15.46
2023-05-04T05:49:11.467Z,15.69
2023-05-04T05:51:38.654Z,15.69
2023-05-04T05:54:06.087Z,15.75
2023-05-04T05:56:33.346Z,15.43
2023-05-04T05:59:00.498Z,15.16
2023-05-04T06:01:28.023Z,15.13
2023-05-04T06:03:55.984Z,15.11
2023-05-04T06:06:23.334Z,15.09
2023-05-04T06:08:50.567Z,15.11
2023-05-04T06:11:18.021Z,15.16
2023-05-04T06:13:45.237Z,15.40
2023-05-04T06:16:12.588Z,15.53
2023-05-04T06:18:40.313Z,15.72
2023-05-04T06:21:08.000Z,16.07
2023-05-04T06:23:35.481Z,15.87
2023-05-04T06:26:05.980Z,15.66
2023-05-04T06:28:33.606Z,15.89
2023-05-04T06:31:01.421Z,15.88
2023-05-04T06:33:28.975Z,15.74
2023-05-04T06:35:56.312Z,15.75
2023-05-04T06:38:23.555Z,16.02
2023-05-04T06:40:51.132Z,16.25
2023-05-04T06:43:18.471Z,16.44
2023-05-04T06:45:45.753Z,15.96
2023-05-04T06:48:13.608Z,15.65
2023-05-04T06:50:41.084Z,15.67
2023-05-04T06:53:09.790Z,15.95
2023-05-04T06:55:37.537Z,16.43
2023-05-04T06:58:05.001Z,16.07
2023-05-04T07:00:32.540Z,16.01
2023-05-04T07:03:00.091Z,16.01
2023-05-04T07:05:27.410Z,15.92
2023-05-04T07:07:54.609Z,15.77
2023-05-04T07:10:22.222Z,15.66
2023-05-04T07:12:49.450Z,15.63
2023-05-04T07:15:16.708Z,15.96
2023-05-04T07:17:44.435Z,16.31
2023-05-04T07:20:12.498Z,16.67
2023-05-04T07:22:39.770Z,17.13
2023-05-04T07:25:07.959Z,17.16
2023-05-04T07:27:35.418Z,17.03
2023-05-04T07:30:03.428Z,17.00
2023-05-04T07:32:31.213Z,17.26
2023-05-04T07:34:58.499Z,17.55
2023-05-04T07:37:25.795Z,17.30
2023-05-04T07:39:53.169Z,17.22
2023-05-04T07:42:20.292Z,17.37
2023-05-04T07:44:47.529Z,17.55
2023-05-04T07:47:14.905Z,17.62
2023-05-04T07:49:42.120Z,17.71
2023-05-04T07:52:09.254Z,17.95
2023-05-04T07:54:36.692Z,17.83
2023-05-04T07:57:04.087Z,17.89
2023-05-04T07:59:31.674Z,17.63
2023-05-04T08:01:59.746Z,17.47
2023-05-04T08:04:27.243Z,17.68
2023-05-04T08:06:54.324Z,17.85
2023-05-04T08:09:21.426Z,17.67
2023-05-04T08:11:49.161Z,17.39
2023-05-04T08:14:16.325Z,17.40
2023-05-04T08:16:43.567Z,17.71
2023-05-04T08:19:12.445Z,17.92
2023-05-04T08:21:40.464Z,18.06
2023-05-04T08:24:07.626Z,18.13
2023-05-04T08:26:37.541Z,18.48
2023-05-04T08:29:07.470Z,18.76
2023-05-04T08:31:35.425Z,18.86
2023-05-04T08:34:03.682Z,19.01
2023-05-04T08:36:30.812Z,19.16
2023-05-04T08:38:58.289Z,18.69
2023-05-04T08:41:25.472Z,18.26
2023-05-04T08:43:52.631Z,18.50
2023-05-04T08:46:20.190Z,18.83
2023-05-04T08:48:47.400Z,18.55
2023-05-04T08:51:14.897Z,18.47
2023-05-04T08:53:45.611Z,18.20
2023-05-04T08:56:13.952Z,18.19
2023-05-04T08:58:48.540Z,18.12
2023-05-04T09:01:17.267Z,18.46
2023-05-04T09:03:46.539Z,18.81
2023-05-04T09:06:14.491Z,19.24
2023-05-04T09:08:42.171Z,19.47
2023-05-04T09:11:09.687Z,19.76
2023-05-04T09:13:37.086Z,20.13
2023-05-04T09:16:05.107Z,20.33
2023-05-04T09:18:40.233Z,20.49
2023-05-04T09:21:08.126Z,20.55
2023-05-04T09:23:55.638Z,20.48
2023-05-04T09:26:27.760Z,20.47
2023-05-04T09:28:55.071Z,20.30
2023-05-04T09:31:23.442Z,20.36
2023-05-04T09:33:53.312Z,20.30
2023-05-04T09:36:21.938Z,19.83
2023-05-04T09:38:49.562Z,19.48
2023-05-04T09:41:16.810Z,19.53
2023-05-04T09:43:44.855Z,19.52
2023-05-04T09:46:19.174Z,19.41
2023-05-04T09:48:54.078Z,19.31
2023-05-04T09:51:23.331Z,19.28
2023-05-04T09:53:51.762Z,19.23
2023-05-04T09:56:28.629Z,19.38
2023-05-04T09:58:59.892Z,19.50
2023-05-04T10:01:29.376Z,19.69
2023-05-04T10:03:57.110Z,19.63
2023-05-04T10:06:24.721Z,19.51
2023-05-04T10:08:52.125Z,19.47
2023-05-04T10:11:20.743Z,19.38
2023-05-04T10:13:51.247Z,19.36
2023-05-04T10:16:32.049Z,19.29
2023-05-04T10:19:18.186Z,19.23
2023-05-04T10:22:14.268Z,19.18
2023-05-04T10:25:06.874Z,19.03
2023-05-04T10:27:52.310Z,18.91
2023-05-04T10:30:20.391Z,19.00
2023-05-04T10:32:55.695Z,19.09
2023-05-04T10:35:23.808Z,19.19
2023-05-04T10:37:55.294Z,19.24
2023-05-04T10:40:36.572Z,19.34
2023-05-04T10:43:04.090Z,19.41
2023-05-04T10:45:38.752Z,19.44
2023-05-04T10:48:08.451Z,19.59
2023-05-04T10:50:46.530Z,19.81
2023-05-04T10:53:15.172Z,20.05
2023-05-04T10:55:43.968Z,20.29
2023-05-04T10:58:14.917Z,20.75
2023-05-04T11:00:44.911Z,21.01
2023-05-04T11:03:12.510Z,21.05
2023-05-04T11:05:47.238Z,20.97
2023-05-04T11:08:25.037Z,20.95
2023-05-04T11:11:09.132Z,20.85
2023-05-04T11:13:42.417Z,20.59
2023-05-04T11:16:12.432Z,20.11
2023-05-04T11:18:41.161Z,20.15
2023-05-04T11:21:09.341Z,20.15
2023-05-04T11:23:36.956Z,20.19
2023-05-04T11:26:12.326Z,20.19
2023-05-04T11:28:39.628Z,20.23
2023-05-04T11:31:14.404Z,20.04
2023-05-04T11:33:47.030Z,19.97
2023-05-04T11:36:14.985Z,19.95
2023-05-04T11:38:42.332Z,19.96
2023-05-04T11:41:10.009Z,20.01
2023-05-04T11:43:38.199Z,20.03
2023-05-04T11:46:06.675Z,20.04
2023-05-04T11:48:34.960Z,20.01
2023-05-04T11:51:03.725Z,20.11
2023-05-04T11:53:38.624Z,20.26
2023-05-04T11:56:08.342Z,20.22
2023-05-04T11:58:35.749Z,20.31
2023-05-04T12:01:04.204Z,20.37
2023-05-04T12:03:51.276Z,20.73
2023-05-04T12:06:31.330Z,20.87
2023-05-04T12:09:06.106Z,20.90
2023-05-04T12:11:34.609Z,21.00
2023-05-04T12:14:02.050Z,20.88
2023-05-04T12:16:29.194Z,20.81
2023-05-04T12:19:07.664Z,20.77
2023-05-04T12:21:36.080Z,20.60
2023-05-04T12:24:03.897Z,20.28
2023-05-04T12:26:31.221Z,20.27
2023-05-04T12:28:58.731Z,20.23
2023-05-04T12:31:25.926Z,20.18
2023-05-04T12:33:53.121Z,20.04
2023-05-04T12:36:21.602Z,19.89
2023-05-04T12:38:48.713Z,19.85
2023-05-04T12:41:15.958Z,19.83
2023-05-04T12:43:43.353Z,19.72
2023-05-04T12:46:10.643Z,19.67
2023-05-04T12:48:37.919Z,19.60
2023-05-04T12:51:05.420Z,19.57
2023-05-04T12:53:32.591Z,19.36
2023-05-04T12:56:01.543Z,19.44
2023-05-04T12:58:29.063Z,19.63
2023-05-04T13:00:57.830Z,19.78
2023-05-04T13:03:25.350Z,19.97
2023-05-04T13:05:52.959Z,20.12
2023-05-04T13:08:20.230Z,19.89
2023-05-04T13:10:48.053Z,19.80
2023-05-04T13:13:17.784Z,19.92
2023-05-04T13:15:45.368Z,19.92
2023-05-04T13:18:13.089Z,20.06
2023-05-04T13:20:41.001Z,20.09
2023-05-04T13:23:08.208Z,20.12
2023-05-04T13:25:35.613Z,20.22
2023-05-04T13:28:03.509Z,20.15
2023-05-04T13:30:30.791Z,20.11
2023-05-04T13:32:58.048Z,20.24
2023-05-04T13:35:25.506Z,20.50
2023-05-04T13:37:56.033Z,20.55
2023-05-04T13:40:23.267Z,20.82
2023-05-04T13:42:50.891Z,21.13
2023-05-04T13:45:19.605Z,21.20
2023-05-04T13:47:46.915Z,21.20
2023-05-04T13:50:14.497Z,21.14
2023-05-04T13:52:41.611Z,21.31
2023-05-04T13:55:09.266Z,21.39
2023-05-04T13:57:36.721Z,21.45
2023-05-04T14:00:08.452Z,21.53
2023-05-04T14:02:37.640Z,21.16
2023-05-04T14:05:05.970Z,21.28
2023-05-04T14:07:34.651Z,21.19
2023-05-04T14:10:02.469Z,21.02
2023-05-04T14:12:30.385Z,20.76
2023-05-04T14:14:58.911Z,20.90
2023-05-04T14:17:26.093Z,20.77
2023-05-04T14:19:53.534Z,20.63
2023-05-04T14:22:20.810Z,20.59
2023-05-04T14:24:49.313Z,20.36
2023-05-04T14:27:17.531Z,20.25
2023-05-04T14:29:46.398Z,20.10
2023-05-04T14:32:14.908Z,20.10
2023-05-04T14:34:42.405Z,19.86
2023-05-04T14:37:09.928Z,19.69
2023-05-04T14:39:37.421Z,19.80
2023-05-04T14:42:04.825Z,19.68
2023-05-04T14:44:31.950Z,19.68
2023-05-04T14:46:59.053Z,19.58
2023-05-04T14:49:36.355Z,19.44
2023-05-04T14:52:05.087Z,19.41
2023-05-04T14:54:32.632Z,19.43
2023-05-04T14:56:59.879Z,19.44
2023-05-04T14:59:27.101Z,19.35
2023-05-04T15:01:55.467Z,19.32
2023-05-04T15:04:22.973Z,19.37
2023-05-04T15:06:50.107Z,19.28
2023-05-04T15:09:17.562Z,19.13
2023-05-04T15:11:44.748Z,19.10
2023-05-04T15:14:11.904Z,19.17
2023-05-04T15:16:39.376Z,19.15
2023-05-04T15:19:07.349Z,19.23
2023-05-04T15:21:34.463Z,19.28
2023-05-04T15:24:02.022Z,19.36
2023-05-04T15:26:30.927Z,19.41
2023-05-04T15:28:58.379Z,19.43
2023-05-04T15:31:25.916Z,19.56
2023-05-04T15:33:53.680Z,19.66
2023-05-04T15:36:20.912Z,19.78
2023-05-04T15:38:48.343Z,19.88
2023-05-04T15:41:15.886Z,19.99
2023-05-04T15:43:43.162Z,20.09
2023-05-04T15:46:10.681Z,20.16
2023-05-04T15:48:37.873Z,20.24
2023-05-04T15:51:10.077Z,20.19
2023-05-04T15:53:37.718Z,20.23
2023-05-04T15:56:06.229Z,20.06
2023-05-04T15:58:33.860Z,20.12
2023-05-04T16:01:03.967Z,20.14
2023-05-04T16:03:32.108Z,20.16
2023-05-04T16:05:59.376Z,20.10
2023-05-04T16:08:26.728Z,20.19
2023-05-04T16:10:55.700Z,20.28
2023-05-04T16:13:22.926Z,20.24
2023-05-04T16:15:53.301Z,20.16
2023-05-04T16:18:20.733Z,20.16
2023-05-04T16:20:48.248Z,20.29
2023-05-04T16:23:17.124Z,20.32
2023-05-04T16:25:44.704Z,20.32
2023-05-04T16:28:11.831Z,20.17
2023-05-04T16:30:39.150Z,20.31
2023-05-04T16:33:06.635Z,20.44
2023-05-04T16:35:34.834Z,20.31
2023-05-04T16:38:02.191Z,20.24
2023-05-04T16:40:32.263Z,20.46
2023-05-04T16:42:59.711Z,20.49
2023-05-04T16:45:31.274Z,20.52
2023-05-04T16:47:58.975Z,20.53
2023-05-04T16:50:26.226Z,20.43
2023-05-04T16:52:53.572Z,20.40
2023-05-04T16:55:21.606Z,20.35
2023-05-04T16:57:49.151Z,20.31
2023-05-04T17:00:17.069Z,20.27
2023-05-04T17:02:44.650Z,20.23
2023-05-04T17:05:11.933Z,20.08
2023-05-04T17:07:39.770Z,20.03
2023-05-04T17:10:08.538Z,20.02
2023-05-04T17:12:36.270Z,19.72
2023-05-04T17:15:03.942Z,19.67
2023-05-04T17:17:31.434Z,19.52
2023-05-04T17:19:58.506Z,19.33
2023-05-04T17:22:25.737Z,19.28
2023-05-04T17:24:53.191Z,19.19
2023-05-04T17:27:20.403Z,19.14
2023-05-04T17:29:47.603Z,19.02
2023-05-04T17:32:15.229Z,18.94
2023-05-04T17:34:42.491Z,18.82
2023-05-04T17:37:09.669Z,18.69
2023-05-04T17:39:37.168Z,18.62
2023-05-04T17:42:04.496Z,18.60
2023-05-04T17:44:32.829Z,18.45
2023-05-04T17:47:00.373Z,18.29
2023-05-04T17:49:27.436Z,18.24
2023-05-04T17:51:56.377Z,18.13
2023-05-04T17:54:23.755Z,17.96
2023-05-04T17:56:50.929Z,17.79
2023-05-04T17:59:18.072Z,17.74
2023-05-04T18:01:45.868Z,17.67
2023-05-04T18:04:13.387Z,17.55
2023-05-04T18:06:40.558Z,17.45
2023-05-04T18:09:07.783Z,17.27
2023-05-04T18:11:35.375Z,17.06
2023-05-04T18:14:02.579Z,16.98
2023-05-04T18:16:30.774Z,16.87
2023-05-04T18:18:58.663Z,16.83
2023-05-04T18:21:26.067Z,16.72
2023-05-04T18:23:56.419Z,16.56
2023-05-04T18:26:23.924Z,16.50
2023-05-04T18:28:51.731Z,16.33
2023-05-04T18:31:19.026Z,16.20
2023-05-04T18:33:46.660Z,16.07
2023-05-04T18:36:13.898Z,15.98
2023-05-04T18:38:41.066Z,15.95
2023-05-04T18:41:08.675Z,15.85
2023-05-04T18:43:35.843Z,15.77
2023-05-04T18:46:07.185Z,15.72
2023-05-04T18:48:34.816Z,15.70
2023-05-04T18:51:02.606Z,15.64
2023-05-04T18:53:29.899Z,15.59
2023-05-04T18:56:15.378Z,15.54
2023-05-04T18:58:42.443Z,15.50
2023-05-04T19:01:09.830Z,15.53
2023-05-04T19:03:37.268Z,15.50
2023-05-04T19:06:04.547Z,15.47
2023-05-04T19:08:32.665Z,15.45
2023-05-04T19:11:00.051Z,15.43
2023-05-04T19:13:27.371Z,15.44
2023-05-04T19:15:54.623Z,15.44
2023-05-04T19:18:22.186Z,15.42
2023-05-04T19:20:49.353Z,15.43
2023-05-04T19:23:16.633Z,15.39
2023-05-04T19:25:45.075Z,15.45
2023-05-04T19:28:12.221Z,15.48
2023-05-04T19:30:39.964Z,15.50
2023-05-04T19:33:10.634Z,15.43
2023-05-04T19:35:37.756Z,15.14
2023-05-04T19:38:07.721Z,14.96
2023-05-04T19:40:35.166Z,14.74
2023-05-04T19:43:02.323Z,14.61
2023-05-04T19:45:29.487Z,14.45
2023-05-04T19:47:56.872Z,14.40
2023-05-04T19:50:24.006Z,14.34
2023-05-04T19:52:51.793Z,14.26
2023-05-04T19:55:19.328Z,14.30
2023-05-04T19:57:47.717Z,14.26
2023-05-04T20:00:17.088Z,14.18
2023-05-04T20:02:44.719Z,14.13
2023-05-04T20:05:12.472Z,14.07
2023-05-04T20:07:39.662Z,13.97
2023-05-04T20:10:08.294Z,13.91
2023-05-04T20:12:35.639Z,13.79
2023-05-04T20:15:02.887Z,13.73
2023-05-04T20:17:30.934Z,13.64
2023-05-04T20:19:58.189Z,13.59
2023-05-04T20:22:25.359Z,13.54
2023-05-04T20:24:52.833Z,13.50
2023-05-04T20:27:20.059Z,13.42
2023-05-04T20:29:47.120Z,13.42
2023-05-04T20:32:14.809Z,13.47
2023-05-04T20:34:43.084Z,13.47
2023-05-04T20:37:10.188Z,13.45
2023-05-04T20:39:37.641Z,13.43
2023-05-04T20:42:05.644Z,13.29
2023-05-04T20:44:33.460Z,13.24
2023-05-04T20:47:00.959Z,13.11
2023-05-04T20:49:28.096Z,13.04
2023-05-04T20:51:55.209Z,12.98
2023-05-04T20:54:22.867Z,12.94
2023-05-04T20:56:49.967Z,13.04
2023-05-04T20:59:17.113Z,13.11
2023-05-04T21:01:44.536Z,13.05
2023-05-04T21:04:11.761Z,13.06
2023-05-04T21:06:38.823Z,13.06
2023-05-04T21:09:07.789Z,13.07
2023-05-04T21:11:34.892Z,13.08
2023-05-04T21:14:02.035Z,13.12
2023-05-04T21:16:29.459Z,13.14
2023-05-04T21:18:56.616Z,13.21
2023-05-04T21:21:23.731Z,13.32
2023-05-04T21:23:51.331Z,13.45
2023-05-04T21:26:18.543Z,13.45
2023-05-04T21:28:46.549Z,13.39
2023-05-04T21:31:14.175Z,13.37
2023-05-04T21:33:41.285Z,13.44
2023-05-04T21:36:15.298Z,13.48
2023-05-04T21:38:42.875Z,13.57
2023-05-04T21:41:14.267Z,13.49
2023-05-04T21:43:42.219Z,13.43
2023-05-04T21:46:09.748Z,13.40
2023-05-04T21:48:36.936Z,13.53
2023-05-04T21:51:04.233Z,13.44
2023-05-04T21:53:34.532Z,13.37
2023-05-04T21:56:06.431Z,13.35
2023-05-04T21:58:34.311Z,13.45
2023-05-04T22:01:01.481Z,13.42
2023-05-04T22:03:29.769Z,13.34
2023-05-04T22:06:00.478Z,13.37
2023-05-04T22:08:28.433Z,13.37
2023-05-04T22:10:57.621Z,13.27
2023-05-04T22:13:25.669Z,13.29
2023-05-04T22:15:53.528Z,13.29
2023-05-04T22:18:20.965Z,13.26
2023-05-04T22:20:48.163Z,13.27
2023-05-04T22:23:15.393Z,13.17
2023-05-04T22:25:42.946Z,13.14
2023-05-04T22:28:10.050Z,13.10
2023-05-04T22:30:37.211Z,13.06
2023-05-04T22:33:04.685Z,13.06
2023-05-04T22:35:31.861Z,13.10
2023-05-04T22:37:59.108Z,13.13
2023-05-04T22:40:26.849Z,13.22
2023-05-04T22:42:54.051Z,13.15
2023-05-04T22:45:21.311Z,13.17
2023-05-04T22:47:48.936Z,13.03
2023-05-04T22:50:16.244Z,12.89
2023-05-04T22:52:43.492Z,12.82
2023-05-04T22:55:10.976Z,12.84
2023-05-04T22:57:38.205Z,12.77
2023-05-04T23:00:07.644Z,12.72
2023-05-04T23:02:35.922Z,12.64
2023-05-04T23:05:03.989Z,12.48
2023-05-04T23:07:31.110Z,12.36
2023-05-04T23:09:59.666Z,12.28
2023-05-04T23:12:28.013Z,12.14
2023-05-04T23:14:55.151Z,12.11
2023-05-04T23:17:22.581Z,12.05
2023-05-04T23:19:50.036Z,12.00
2023-05-04T23:22:17.209Z,11.86
2023-05-04T23:24:44.567Z,11.84
2023-05-04T23:27:11.685Z,11.77
2023-05-04T23:29:38.872Z,11.68
2023-05-04T23:32:06.502Z,11.61
2023-05-04T23:34:33.812Z,11.54
2023-05-04T23:37:01.082Z,11.50
2023-05-04T23:39:28.621Z,11.42
2023-05-04T23:41:55.776Z,11.37
2023-05-04T23:44:22.882Z,11.37
2023-05-04T23:46:50.356Z,11.30
2023-05-04T23:49:17.511Z,11.27
2023-05-04T23:51:44.705Z,11.24
2023-05-04T23:54:12.120Z,11.23
2023-05-04T23:56:39.271Z,11.14
2023-05-04T23:59:06.570Z,11.09
